createdAt,value
2023-04-21T05:03:32.213Z,21.87
2023-04-21T05:04:32.194Z,21.86
2023-04-21T05:05:32.082Z,21.86
2023-04-21T05:06:32.066Z,21.90
2023-04-21T05:07:32.062Z,21.90
2023-04-21T05:08:32.047Z,21.90
2023-04-21T05:09:33.043Z,21.93
2023-04-21T05:10:32.042Z,21.93
2023-04-21T05:11:32.071Z,21.93
2023-04-21T05:12:32.054Z,21.94
2023-04-21T05:13:32.041Z,21.91
2023-04-21T05:14:33.051Z,21.93
2023-04-21T05:15:32.035Z,21.94
2023-04-21T05:16:32.100Z,21.93
2023-04-21T05:17:33.074Z,21.94
2023-04-21T05:18:33.061Z,21.91
2023-04-21T05:19:33.097Z,21.94
2023-04-21T05:20:33.069Z,21.93
2023-04-21T05:21:32.061Z,21.94
2023-04-21T05:22:32.067Z,21.93
2023-04-21T05:23:32.068Z,21.93
2023-04-21T05:24:32.083Z,21.96
2023-04-21T05:25:33.082Z,21.93
2023-04-21T05:26:33.075Z,21.89
2023-04-21T05:27:32.093Z,21.91
2023-04-21T05:28:33.079Z,21.86
2023-04-21T05:29:32.080Z,21.91
2023-04-21T05:30:32.089Z,21.87
2023-04-21T05:31:33.233Z,21.86
2023-04-21T05:32:33.242Z,21.89
2023-04-21T05:33:33.079Z,21.93
2023-04-21T05:34:33.078Z,22.03
2023-04-21T05:35:33.096Z,21.99
2023-04-21T05:36:33.082Z,22.05
2023-04-21T05:37:32.108Z,22.10
2023-04-21T05:38:33.112Z,22.12
2023-04-21T05:39:32.131Z,22.15
2023-04-21T05:40:33.167Z,22.14
2023-04-21T05:41:32.229Z,22.19
2023-04-21T05:42:33.277Z,22.22
2023-04-21T05:43:32.347Z,22.19
2023-04-21T05:44:33.389Z,22.22
2023-04-21T05:45:33.444Z,22.24
2023-04-21T05:46:33.593Z,22.18
2023-04-21T05:47:32.509Z,22.14
2023-04-21T05:48:32.484Z,22.03
2023-04-21T05:49:33.517Z,21.89
2023-04-21T05:50:33.560Z,21.83
2023-04-21T05:51:33.632Z,21.72
2023-04-21T05:52:33.640Z,21.73
2023-04-21T05:53:32.700Z,21.72
2023-04-21T05:54:32.703Z,21.69
2023-04-21T05:55:32.729Z,21.67
2023-04-21T05:56:33.790Z,21.69
2023-04-21T05:57:32.810Z,21.65
2023-04-21T05:58:33.954Z,21.69
2023-04-21T05:59:33.886Z,21.72
2023-04-21T06:00:33.894Z,21.63
2023-04-21T06:01:34.061Z,21.65
2023-04-21T06:02:33.140Z,21.74
2023-04-21T06:03:33.121Z,21.79
2023-04-21T06:04:34.385Z,21.91
2023-04-21T06:05:34.055Z,21.99
2023-04-21T06:06:34.049Z,22.04
2023-04-21T06:07:33.129Z,22.17
2023-04-21T06:08:33.146Z,22.21
2023-04-21T06:09:33.201Z,22.38
2023-04-21T06:10:34.234Z,22.46
2023-04-21T06:11:33.283Z,22.55
2023-04-21T06:12:33.290Z,22.55
2023-04-21T06:13:33.291Z,22.56
2023-04-21T06:14:33.330Z,22.64
2023-04-21T06:15:33.327Z,22.63
2023-04-21T06:16:34.424Z,22.59
2023-04-21T06:17:33.412Z,22.72
2023-04-21T06:18:33.313Z,22.70
2023-04-21T06:19:34.337Z,22.90
2023-04-21T06:20:34.353Z,22.98
2023-04-21T06:21:33.398Z,22.93
2023-04-21T06:22:33.393Z,23.10
2023-04-21T06:23:33.472Z,23.04
2023-04-21T06:24:34.458Z,23.11
2023-04-21T06:25:33.448Z,23.25
2023-04-21T06:26:33.498Z,23.15
2023-04-21T06:27:34.506Z,23.27
2023-04-21T06:28:34.548Z,23.32
2023-04-21T06:29:34.554Z,23.38
2023-04-21T06:30:34.583Z,23.42
2023-04-21T06:31:34.673Z,23.45
2023-04-21T06:32:33.728Z,23.49
2023-04-21T06:33:33.768Z,23.51
2023-04-21T06:34:34.839Z,23.51
2023-04-21T06:35:34.908Z,23.46
2023-04-21T06:36:33.939Z,23.52
2023-04-21T06:37:35.007Z,23.53
2023-04-21T06:38:35.059Z,23.55
2023-04-21T06:39:34.153Z,23.59
2023-04-21T06:40:35.167Z,23.58
2023-04-21T06:41:35.207Z,23.59
2023-04-21T06:42:34.217Z,23.59
2023-04-21T06:43:35.280Z,23.65
2023-04-21T06:44:35.307Z,23.68
2023-04-21T06:45:35.370Z,23.65
2023-04-21T06:46:35.482Z,23.56
2023-04-21T06:47:34.484Z,23.58
2023-04-21T06:48:34.517Z,23.55
2023-04-21T06:49:34.566Z,23.63
2023-04-21T06:50:35.599Z,23.62
2023-04-21T06:51:35.680Z,23.73
2023-04-21T06:52:35.750Z,23.68
2023-04-21T06:53:35.796Z,23.63
2023-04-21T06:54:34.816Z,23.62
2023-04-21T06:55:35.903Z,23.62
2023-04-21T06:56:36.107Z,23.61
2023-04-21T06:57:34.961Z,23.61
2023-04-21T06:58:36.041Z,23.62
2023-04-21T06:59:35.075Z,23.74
2023-04-21T07:00:35.124Z,23.69
2023-04-21T07:01:35.283Z,23.69
2023-04-21T07:02:36.413Z,23.74
2023-04-21T07:03:36.620Z,23.72
2023-04-21T07:04:36.462Z,23.80
2023-04-21T07:05:36.450Z,23.76
2023-04-21T07:06:36.497Z,23.76
2023-04-21T07:07:36.578Z,23.77
2023-04-21T07:08:35.603Z,23.83
2023-04-21T07:09:36.658Z,23.83
2023-04-21T07:10:36.726Z,23.95
2023-04-21T07:11:36.781Z,23.79
2023-04-21T07:12:36.811Z,23.74
2023-04-21T07:13:36.890Z,23.89
2023-04-21T07:14:35.912Z,23.80
2023-04-21T07:15:35.955Z,23.77
2023-04-21T07:16:37.040Z,23.84
2023-04-21T07:17:37.105Z,23.96
2023-04-21T07:18:37.125Z,23.95
2023-04-21T07:19:37.156Z,23.91
2023-04-21T07:20:36.251Z,23.89
2023-04-21T07:21:37.274Z,23.90
2023-04-21T07:22:37.315Z,24.07
2023-04-21T07:23:37.346Z,24.01
2023-04-21T07:24:37.416Z,24.01
2023-04-21T07:25:36.429Z,24.13
2023-04-21T07:26:37.478Z,24.11
2023-04-21T07:27:37.647Z,24.06
2023-04-21T07:28:37.612Z,24.17
2023-04-21T07:29:37.578Z,24.20
2023-04-21T07:30:37.672Z,24.23
2023-04-21T07:31:37.696Z,24.10
2023-04-21T07:32:37.815Z,24.11
2023-04-21T07:33:37.750Z,24.07
2023-04-21T07:34:37.972Z,24.21
2023-04-21T07:35:38.603Z,24.06
2023-04-21T07:36:37.851Z,24.08
2023-04-21T07:37:36.872Z,24.24
2023-04-21T07:38:37.916Z,24.30
2023-04-21T07:39:37.963Z,24.25
2023-04-21T07:40:37.961Z,24.28
2023-04-21T07:41:36.974Z,24.20
2023-04-21T07:42:37.997Z,24.36
2023-04-21T07:43:38.033Z,24.36
2023-04-21T07:44:37.021Z,24.38
2023-04-21T07:45:37.050Z,24.38
2023-04-21T07:46:37.205Z,24.45
2023-04-21T07:47:38.124Z,24.36
2023-04-21T07:48:38.098Z,24.38
2023-04-21T07:49:38.370Z,24.30
2023-04-21T07:50:37.137Z,24.34
2023-04-21T07:51:38.607Z,24.35
2023-04-21T07:52:37.209Z,24.39
2023-04-21T07:53:38.265Z,24.39
2023-04-21T07:54:38.271Z,24.32
2023-04-21T07:55:38.322Z,24.25
2023-04-21T07:56:38.365Z,24.30
2023-04-21T07:57:37.428Z,24.24
2023-04-21T07:58:38.482Z,24.20
2023-04-21T07:59:38.667Z,24.15
2023-04-21T08:00:37.608Z,24.11
2023-04-21T08:01:38.673Z,24.04
2023-04-21T08:02:38.790Z,24.03
2023-04-21T08:03:39.097Z,24.00
2023-04-21T08:04:38.147Z,23.97
2023-04-21T08:05:41.167Z,23.95
2023-04-21T08:06:38.872Z,23.91
2023-04-21T08:07:37.859Z,23.87
2023-04-21T08:08:38.864Z,23.87
2023-04-21T08:09:37.832Z,23.86
2023-04-21T08:10:38.844Z,23.86
2023-04-21T08:11:38.824Z,23.83
2023-04-21T08:12:38.811Z,23.80
2023-04-21T08:13:38.847Z,23.83
2023-04-21T08:14:38.800Z,23.79
2023-04-21T08:15:38.853Z,23.77
2023-04-21T08:16:38.844Z,23.74
2023-04-21T08:17:38.944Z,23.76
2023-04-21T08:18:37.766Z,23.77
2023-04-21T08:19:37.759Z,23.74
2023-04-21T08:20:38.744Z,23.73
2023-04-21T08:21:38.785Z,23.72
2023-04-21T08:22:38.782Z,23.72
2023-04-21T08:23:38.824Z,23.70
2023-04-21T08:24:38.734Z,23.68
2023-04-21T08:25:37.721Z,23.69
2023-04-21T08:26:37.728Z,23.69
2023-04-21T08:27:38.757Z,23.66
2023-04-21T08:28:37.828Z,23.66
2023-04-21T08:29:38.080Z,23.63
2023-04-21T08:30:37.699Z,23.62
2023-04-21T08:31:37.795Z,23.61
2023-04-21T08:32:37.742Z,23.59
2023-04-21T08:33:46.820Z,23.59
2023-04-21T08:34:38.674Z,23.58
2023-04-21T08:35:41.095Z,23.55
2023-04-21T08:36:38.685Z,23.53
2023-04-21T08:37:38.648Z,23.52
2023-04-21T08:38:38.627Z,23.49
2023-04-21T08:39:38.636Z,23.49
2023-04-21T08:40:38.618Z,23.46
2023-04-21T08:41:38.716Z,23.38
2023-04-21T08:42:38.664Z,23.28
2023-04-21T08:43:38.597Z,23.34
2023-04-21T08:44:38.601Z,23.35
2023-04-21T08:45:38.728Z,23.31
2023-04-21T08:46:38.571Z,23.37
2023-04-21T08:47:38.689Z,23.34
2023-04-21T08:48:38.593Z,23.35
2023-04-21T08:49:38.584Z,23.32
2023-04-21T08:50:38.570Z,23.28
2023-04-21T08:51:38.588Z,23.28
2023-04-21T08:52:38.541Z,23.24
2023-04-21T08:53:38.579Z,23.21
2023-04-21T08:54:37.530Z,23.14
2023-04-21T08:55:37.542Z,23.18
2023-04-21T08:56:38.496Z,23.13
2023-04-21T08:57:37.662Z,22.97
2023-04-21T08:58:38.629Z,23.14
2023-04-21T08:59:38.479Z,23.15
2023-04-21T09:00:38.501Z,23.22
2023-04-21T09:01:38.590Z,23.32
2023-04-21T09:02:37.630Z,23.40
2023-04-21T09:03:37.668Z,23.42
2023-04-21T09:04:38.858Z,23.49
2023-04-21T09:05:42.872Z,23.45
2023-04-21T09:06:38.493Z,23.55
2023-04-21T09:07:38.445Z,23.44
2023-04-21T09:08:38.428Z,23.48
2023-04-21T09:09:38.403Z,23.48
2023-04-21T09:10:38.438Z,23.56
2023-04-21T09:11:37.424Z,23.59
2023-04-21T09:12:38.413Z,23.56
2023-04-21T09:13:37.406Z,23.66
2023-04-21T09:14:38.386Z,23.66
2023-04-21T09:15:37.374Z,23.66
2023-04-21T09:16:37.466Z,23.72
2023-04-21T09:17:38.434Z,23.83
2023-04-21T09:18:38.358Z,23.70
2023-04-21T09:19:37.376Z,23.83
2023-04-21T09:20:38.351Z,23.89
2023-04-21T09:21:37.331Z,23.76
2023-04-21T09:22:38.360Z,23.93
2023-04-21T09:23:38.327Z,23.77
2023-04-21T09:24:38.334Z,23.84
2023-04-21T09:25:38.348Z,23.87
2023-04-21T09:26:37.318Z,23.96
2023-04-21T09:27:38.316Z,23.96
2023-04-21T09:28:38.293Z,23.99
2023-04-21T09:29:38.291Z,23.99
2023-04-21T09:30:38.375Z,23.99
2023-04-21T09:31:37.475Z,23.99
2023-04-21T09:32:38.383Z,24.04
2023-04-21T09:33:49.469Z,24.01
2023-04-21T09:34:38.276Z,24.00
2023-04-21T09:35:38.272Z,23.95
2023-04-21T09:36:38.246Z,23.87
2023-04-21T09:37:37.242Z,23.95
2023-04-21T09:38:38.239Z,23.96
2023-04-21T09:39:52.699Z,23.99
2023-04-21T09:40:38.226Z,23.90
2023-04-21T09:41:37.232Z,24.00
2023-04-21T09:42:40.547Z,23.97
2023-04-21T09:43:38.184Z,23.96
2023-04-21T09:44:47.516Z,24.00
2023-04-21T09:45:40.628Z,24.03
2023-04-21T09:46:38.324Z,24.10
2023-04-21T09:47:38.671Z,24.04
2023-04-21T09:48:37.167Z,23.87
2023-04-21T09:49:38.163Z,23.90
2023-04-21T09:51:49.025Z,23.69
2023-04-21T09:52:38.144Z,23.61
2023-04-21T09:53:38.120Z,23.62
2023-04-21T09:54:37.329Z,23.59
2023-04-21T09:55:38.137Z,23.59
2023-04-21T09:56:38.154Z,23.63
2023-04-21T09:57:38.111Z,23.63
2023-04-21T09:58:37.111Z,23.70
2023-04-21T09:59:38.083Z,23.76
2023-04-21T10:00:37.070Z,23.76
2023-04-21T10:01:37.145Z,23.79
2023-04-21T10:02:38.237Z,23.87
2023-04-21T10:03:38.236Z,23.87
2023-04-21T10:04:37.534Z,23.90
2023-04-21T10:05:40.239Z,23.90
2023-04-21T10:06:38.040Z,23.91
2023-04-21T10:07:37.056Z,23.96
2023-04-21T10:08:37.032Z,23.96
2023-04-21T10:09:37.022Z,23.97
2023-04-21T10:10:37.008Z,24.00
2023-04-21T10:11:37.014Z,24.04
2023-04-21T10:12:38.053Z,24.07
2023-04-21T10:13:38.093Z,24.10
2023-04-21T10:14:37.163Z,24.13
2023-04-21T10:15:37.182Z,24.11
2023-04-21T10:16:37.444Z,24.13
2023-04-21T10:17:38.375Z,24.08
2023-04-21T10:18:37.364Z,24.07
2023-04-21T10:19:38.441Z,24.07
2023-04-21T10:20:38.505Z,24.03
2023-04-21T10:21:38.595Z,24.01
2023-04-21T10:22:38.623Z,24.00
2023-04-21T10:23:38.710Z,23.99
2023-04-21T10:24:38.731Z,24.00
2023-04-21T10:25:38.789Z,24.01
2023-04-21T10:26:37.850Z,24.01
2023-04-21T10:27:38.943Z,24.04
2023-04-21T10:28:37.999Z,24.03
2023-04-21T10:29:52.803Z,24.06
2023-04-21T10:30:39.102Z,24.03
2023-04-21T10:31:38.095Z,24.07
2023-04-21T10:32:39.107Z,24.04
2023-04-21T10:33:38.017Z,24.04
2023-04-21T10:34:38.027Z,23.95
2023-04-21T10:35:39.010Z,24.00
2023-04-21T10:36:38.004Z,24.00
2023-04-21T10:37:38.020Z,24.03
2023-04-21T10:38:38.041Z,24.07
2023-04-21T10:39:39.014Z,24.08
2023-04-21T10:41:37.968Z,24.00
2023-04-21T10:42:38.962Z,24.00
2023-04-21T10:43:38.969Z,24.03
2023-04-21T10:44:38.974Z,23.91
2023-04-21T10:45:38.922Z,23.89
2023-04-21T10:46:38.999Z,23.83
2023-04-21T10:47:38.094Z,23.73
2023-04-21T10:48:37.902Z,23.66
2023-04-21T10:49:38.917Z,23.61
2023-04-21T10:50:39.768Z,23.58
2023-04-21T10:51:38.921Z,23.52
2023-04-21T10:52:38.896Z,23.41
2023-04-21T10:53:37.875Z,23.35
2023-04-21T10:54:37.872Z,23.29
2023-04-21T10:55:37.911Z,23.25
2023-04-21T10:56:38.964Z,23.19
2023-04-21T10:57:37.829Z,23.15
2023-04-21T10:58:37.855Z,23.11
2023-04-21T10:59:38.818Z,23.11
2023-04-21T11:00:38.883Z,23.04
2023-04-21T11:01:37.869Z,23.01
2023-04-21T11:02:41.050Z,23.01
2023-04-21T11:03:37.971Z,22.94
2023-04-21T11:04:38.212Z,22.94
2023-04-21T11:05:37.807Z,22.94
2023-04-21T11:06:38.772Z,22.93
2023-04-21T11:07:38.775Z,22.93
2023-04-21T11:08:38.760Z,22.94
2023-04-21T11:09:38.758Z,22.94
2023-04-21T11:10:38.731Z,22.97
2023-04-21T11:11:38.757Z,22.96
2023-04-21T11:12:38.818Z,22.94
2023-04-21T11:13:37.752Z,22.98
2023-04-21T11:14:37.743Z,22.93
2023-04-21T11:15:38.694Z,22.98
2023-04-21T11:16:38.694Z,23.01
2023-04-21T11:17:38.752Z,23.03
2023-04-21T11:18:37.768Z,23.07
2023-04-21T11:19:38.787Z,23.08
2023-04-21T11:20:37.812Z,23.10
2023-04-21T11:21:38.841Z,23.14
2023-04-21T11:22:37.917Z,23.13
2023-04-21T11:23:37.905Z,23.15
2023-04-21T11:24:38.929Z,23.15
2023-04-21T11:25:37.964Z,23.18
2023-04-21T11:26:39.001Z,23.21
2023-04-21T11:27:38.056Z,23.21
2023-04-21T11:28:39.048Z,23.21
2023-04-21T11:29:39.100Z,23.24
2023-04-21T11:30:38.180Z,23.22
2023-04-21T11:31:38.261Z,23.22
2023-04-21T11:32:39.203Z,23.21
2023-04-21T11:33:38.193Z,23.21
2023-04-21T11:34:39.227Z,23.21
2023-04-21T11:35:38.246Z,23.21
2023-04-21T11:36:38.255Z,23.24
2023-04-21T11:37:38.298Z,23.14
2023-04-21T11:38:39.675Z,23.18
2023-04-21T11:39:39.362Z,23.14
2023-04-21T11:40:39.397Z,23.17
2023-04-21T11:41:39.447Z,23.24
2023-04-21T11:42:38.469Z,23.25
2023-04-21T11:43:39.533Z,23.27
2023-04-21T11:44:39.573Z,23.29
2023-04-21T11:45:39.598Z,23.27
2023-04-21T11:46:38.757Z,23.27
2023-04-21T11:47:38.679Z,23.27
2023-04-21T11:48:39.946Z,23.24
2023-04-21T11:49:38.749Z,23.21
2023-04-21T11:50:38.761Z,23.22
2023-04-21T11:51:39.824Z,23.24
2023-04-21T11:52:39.846Z,23.19
2023-04-21T11:53:38.882Z,23.21
2023-04-21T11:54:39.915Z,23.19
2023-04-21T11:55:38.960Z,23.19
2023-04-21T11:56:40.022Z,23.18
2023-04-21T11:57:39.044Z,23.17
2023-04-21T11:58:40.092Z,23.17
2023-04-21T11:59:40.129Z,23.18
2023-04-21T12:00:40.144Z,23.18
2023-04-21T12:01:40.177Z,23.18
2023-04-21T12:02:40.445Z,23.19
2023-04-21T12:03:39.332Z,23.18
2023-04-21T12:04:40.536Z,23.24
2023-04-21T12:05:40.304Z,23.25
2023-04-21T12:06:39.317Z,23.28
2023-04-21T12:07:40.352Z,23.27
2023-04-21T12:08:39.433Z,23.27
2023-04-21T12:09:40.432Z,23.25
2023-04-21T12:10:40.463Z,23.27
2023-04-21T12:11:39.499Z,23.25
2023-04-21T12:12:39.534Z,23.28
2023-04-21T12:13:40.592Z,23.29
2023-04-21T12:14:43.118Z,23.19
2023-04-21T12:15:39.629Z,23.28
2023-04-21T12:16:39.625Z,23.28
2023-04-21T12:17:40.596Z,23.32
2023-04-21T12:18:39.607Z,23.34
2023-04-21T12:19:39.562Z,23.34
2023-04-21T12:20:39.562Z,23.45
2023-04-21T12:21:39.567Z,23.45
2023-04-21T12:22:40.559Z,23.48
2023-04-21T12:23:40.568Z,23.42
2023-04-21T12:24:39.547Z,23.42
2023-04-21T12:25:39.547Z,23.41
2023-04-21T12:26:39.527Z,23.45
2023-04-21T12:27:39.522Z,23.45
2023-04-21T12:28:40.517Z,23.48
2023-04-21T12:29:40.529Z,23.49
2023-04-21T12:30:42.537Z,23.49
2023-04-21T12:31:39.568Z,23.48
2023-04-21T12:32:39.610Z,23.51
2023-04-21T12:33:40.625Z,23.44
2023-04-21T12:34:39.454Z,23.44
2023-04-21T12:35:40.451Z,23.44
2023-04-21T12:36:40.447Z,23.42
2023-04-21T12:37:39.453Z,23.42
2023-04-21T12:38:40.713Z,23.44
2023-04-21T12:39:40.457Z,23.40
2023-04-21T12:40:40.424Z,23.37
2023-04-21T12:41:39.434Z,23.37
2023-04-21T12:42:40.423Z,23.31
2023-04-21T12:43:39.417Z,23.29
2023-04-21T12:44:39.419Z,23.31
2023-04-21T12:45:39.405Z,23.29
2023-04-21T12:46:40.406Z,23.27
2023-04-21T12:47:39.561Z,23.27
2023-04-21T12:48:40.374Z,23.22
2023-04-21T12:49:40.366Z,23.25
2023-04-21T12:50:39.364Z,23.22
2023-04-21T12:51:39.351Z,23.24
2023-04-21T12:52:39.343Z,23.22
2023-04-21T12:53:39.322Z,23.25
2023-04-21T12:54:39.361Z,23.21
2023-04-21T12:55:41.280Z,23.21
2023-04-21T12:56:40.379Z,23.19
2023-04-21T12:57:39.312Z,23.21
2023-04-21T12:58:40.303Z,23.17
2023-04-21T12:59:39.284Z,23.22
2023-04-21T13:00:40.285Z,23.22
2023-04-21T13:01:39.492Z,23.22
2023-04-21T13:02:40.374Z,23.21
2023-04-21T13:03:39.536Z,23.19
2023-04-21T13:04:40.286Z,23.24
2023-04-21T13:05:40.263Z,23.19
2023-04-21T13:06:39.224Z,23.19
2023-04-21T13:07:40.241Z,23.18
2023-04-21T13:08:40.243Z,23.19
2023-04-21T13:09:39.237Z,23.17
2023-04-21T13:10:40.263Z,23.17
2023-04-21T13:11:39.290Z,23.15
2023-04-21T13:12:40.344Z,23.14
2023-04-21T13:13:39.378Z,23.17
2023-04-21T13:14:40.416Z,23.15
2023-04-21T13:15:40.465Z,23.15
2023-04-21T13:16:40.537Z,23.15
2023-04-21T13:17:40.532Z,23.15
2023-04-21T13:18:40.591Z,23.15
2023-04-21T13:19:40.697Z,23.14
2023-04-21T13:20:40.662Z,23.13
2023-04-21T13:21:39.721Z,23.13
2023-04-21T13:22:39.737Z,23.14
2023-04-21T13:23:40.779Z,23.14
2023-04-21T13:24:40.820Z,23.11
2023-04-21T13:25:39.856Z,23.13
2023-04-21T13:26:39.913Z,23.11
2023-04-21T13:27:40.987Z,23.11
2023-04-21T13:28:40.995Z,23.13
2023-04-21T13:29:40.064Z,23.13
2023-04-21T13:30:40.149Z,23.14
2023-04-21T13:31:40.282Z,23.10
2023-04-21T13:32:40.259Z,23.13
2023-04-21T13:33:40.250Z,23.14
2023-04-21T13:34:41.298Z,23.14
2023-04-21T13:35:40.383Z,23.13
2023-04-21T13:36:41.414Z,23.13
2023-04-21T13:37:41.493Z,23.13
2023-04-21T13:38:41.725Z,23.14
2023-04-21T13:39:41.581Z,23.13
2023-04-21T13:40:40.619Z,23.14
2023-04-21T13:41:40.669Z,23.10
2023-04-21T13:42:41.708Z,23.13
2023-04-21T13:43:40.781Z,23.15
2023-04-21T13:44:40.814Z,23.11
2023-04-21T13:45:41.887Z,23.11
2023-04-21T13:46:41.956Z,23.13
2023-04-21T13:47:41.039Z,23.14
2023-04-21T13:48:41.236Z,23.13
2023-04-21T13:49:42.098Z,23.10
2023-04-21T13:50:41.134Z,23.13
2023-04-21T13:51:41.206Z,23.10
2023-04-21T13:52:42.241Z,23.10
2023-04-21T13:53:42.754Z,23.10
2023-04-21T13:54:42.349Z,23.11
2023-04-21T13:55:41.424Z,23.10
2023-04-21T13:56:42.453Z,23.10
2023-04-21T13:57:42.535Z,23.11
2023-04-21T13:58:41.771Z,23.11
2023-04-21T13:59:42.620Z,23.08
2023-04-21T14:00:42.672Z,23.10
2023-04-21T14:01:41.765Z,23.08
2023-04-21T14:02:42.986Z,23.07
2023-04-21T14:03:42.002Z,23.08
2023-04-21T14:04:43.248Z,23.08
2023-04-21T14:05:42.035Z,23.08
2023-04-21T14:06:43.015Z,23.08
2023-04-21T14:07:43.043Z,23.06
2023-04-21T14:08:43.116Z,23.06
2023-04-21T14:09:42.162Z,23.06
2023-04-21T14:10:42.242Z,23.06
2023-04-21T14:11:43.286Z,23.01
2023-04-21T14:12:43.354Z,23.03
2023-04-21T14:13:56.053Z,23.01
2023-04-21T14:14:43.404Z,23.01
2023-04-21T14:15:42.441Z,23.03
2023-04-21T14:16:42.359Z,23.01
2023-04-21T14:17:42.450Z,22.93
2023-04-21T14:18:43.365Z,23.00
2023-04-21T14:19:42.373Z,23.00
2023-04-21T14:20:42.368Z,22.98
2023-04-21T14:21:43.327Z,23.03
2023-04-21T14:22:43.390Z,23.04
2023-04-21T14:23:42.345Z,23.07
2023-04-21T14:24:43.381Z,23.07
2023-04-21T14:25:43.429Z,23.06
2023-04-21T14:26:43.439Z,23.06
2023-04-21T14:27:43.557Z,23.06
2023-04-21T14:28:43.582Z,23.04
2023-04-21T14:29:43.618Z,23.04
2023-04-21T14:30:42.749Z,23.06
2023-04-21T14:31:43.870Z,23.03
2023-04-21T14:32:42.835Z,23.01
2023-04-21T14:33:43.853Z,23.01
2023-04-21T14:34:43.909Z,22.98
2023-04-21T14:35:42.983Z,22.97
2023-04-21T14:36:43.021Z,22.97
2023-04-21T14:37:43.130Z,22.96
2023-04-21T14:38:43.232Z,22.97
2023-04-21T14:39:43.240Z,22.94
2023-04-21T14:40:43.255Z,22.93
2023-04-21T14:41:44.322Z,22.93
2023-04-21T14:42:43.389Z,22.91
2023-04-21T14:43:44.454Z,22.93
2023-04-21T14:44:44.531Z,22.94
2023-04-21T14:45:44.607Z,22.91
2023-04-21T14:46:50.454Z,22.91
2023-04-21T14:47:44.634Z,22.94
2023-04-21T14:48:44.630Z,22.98
2023-04-21T14:49:44.601Z,23.00
2023-04-21T14:50:43.661Z,22.98
2023-04-21T14:51:43.597Z,23.01
2023-04-21T14:52:43.563Z,23.01
2023-04-21T14:53:44.605Z,23.00
2023-04-21T14:54:43.568Z,23.00
2023-04-21T14:55:44.613Z,23.01
2023-04-21T14:56:44.601Z,23.07
2023-04-21T14:57:44.559Z,23.08
2023-04-21T14:58:44.653Z,23.07
2023-04-21T14:59:43.715Z,23.08
2023-04-21T15:00:44.663Z,23.07
2023-04-21T15:01:43.782Z,23.07
2023-04-21T15:02:44.868Z,23.11
2023-04-21T15:03:43.966Z,23.10
2023-04-21T15:04:44.017Z,23.14
2023-04-21T15:05:45.010Z,23.11
2023-04-21T15:06:45.053Z,23.14
2023-04-21T15:07:44.051Z,23.13
2023-04-21T15:08:44.169Z,23.14
2023-04-21T15:09:44.213Z,23.14
2023-04-21T15:10:45.216Z,23.14
2023-04-21T15:11:45.259Z,23.13
2023-04-21T15:12:44.391Z,23.11
2023-04-21T15:13:44.399Z,23.11
2023-04-21T15:14:45.436Z,23.10
2023-04-21T15:15:45.459Z,23.13
2023-04-21T15:16:44.577Z,23.13
2023-04-21T15:17:44.611Z,23.10
2023-04-21T15:18:45.659Z,23.13
2023-04-21T15:19:45.713Z,23.13
2023-04-21T15:20:45.832Z,23.13
2023-04-21T15:21:44.817Z,23.13
2023-04-21T15:22:44.855Z,23.10
2023-04-21T15:23:44.890Z,23.13
2023-04-21T15:24:45.965Z,23.13
2023-04-21T15:25:46.036Z,23.13
2023-04-21T15:26:45.054Z,23.14
2023-04-21T15:27:46.103Z,23.14
2023-04-21T15:28:45.110Z,23.06
2023-04-21T15:29:45.179Z,23.13
2023-04-21T15:32:04.606Z,23.11
2023-04-21T15:33:05.345Z,23.08
2023-04-21T15:34:05.282Z,23.06
2023-04-21T15:35:05.328Z,23.11
2023-04-21T15:36:05.251Z,23.08
2023-04-21T15:37:05.287Z,23.08
2023-04-21T15:38:05.284Z,23.11
2023-04-21T15:39:05.242Z,23.08
2023-04-21T15:40:04.261Z,23.10
2023-04-21T15:41:05.269Z,23.11
2023-04-21T15:42:05.311Z,23.08
2023-04-21T15:43:05.285Z,23.06
2023-04-21T15:44:05.239Z,23.10
2023-04-21T15:45:05.234Z,23.10
2023-04-21T15:46:04.208Z,23.08
2023-04-21T15:47:05.288Z,23.10
2023-04-21T15:48:05.297Z,23.08
2023-04-21T15:49:05.216Z,23.11
2023-04-21T15:50:05.188Z,23.10
2023-04-21T15:51:05.207Z,23.11
2023-04-21T15:52:04.136Z,23.06
2023-04-21T15:53:04.228Z,23.07
2023-04-21T15:54:05.156Z,23.04
2023-04-21T15:55:05.249Z,23.07
2023-04-21T15:56:05.140Z,23.06
2023-04-21T15:57:04.209Z,23.04
2023-04-21T15:58:05.132Z,23.06
2023-04-21T15:59:05.190Z,23.04
2023-04-21T16:00:04.140Z,23.01
2023-04-21T16:01:04.602Z,23.03
2023-04-21T16:02:11.275Z,23.00
2023-04-21T16:03:04.255Z,23.03
2023-04-21T16:04:04.253Z,23.06
2023-04-21T16:05:05.288Z,23.01
2023-04-21T16:06:04.269Z,23.06
2023-04-21T16:07:04.042Z,23.03
2023-04-21T16:08:05.026Z,23.00
2023-04-21T16:09:05.053Z,23.01
2023-04-21T16:10:04.133Z,22.98
2023-04-21T16:11:04.048Z,22.98
2023-04-21T16:12:04.026Z,22.96
2023-04-21T16:13:05.103Z,22.98
2023-04-21T16:14:04.007Z,22.98
2023-04-21T16:15:16.308Z,22.97
2023-04-21T16:16:05.013Z,22.98
2023-04-21T16:17:04.092Z,23.00
2023-04-21T16:18:05.032Z,22.98
2023-04-21T16:19:04.953Z,22.96
2023-04-21T16:20:05.029Z,22.98
2023-04-21T16:21:05.022Z,23.01
2023-04-21T16:22:04.940Z,22.98
2023-04-21T16:23:03.916Z,22.98
2023-04-21T16:24:07.431Z,22.98
2023-04-21T16:25:03.942Z,22.97
2023-04-21T16:26:03.961Z,22.94
2023-04-21T16:27:04.888Z,22.97
2023-04-21T16:28:04.931Z,22.97
2023-04-21T16:29:03.985Z,22.97
2023-04-21T16:30:07.410Z,22.97
2023-04-21T16:31:03.873Z,22.97
2023-04-21T16:32:03.993Z,22.97
2023-04-21T16:33:04.917Z,22.94
2023-04-21T16:34:03.840Z,22.59
2023-04-21T16:35:04.900Z,22.80
2023-04-21T16:36:04.842Z,22.76
2023-04-21T16:37:03.923Z,22.79
2023-04-21T16:38:04.822Z,22.86
2023-04-21T16:39:04.858Z,22.89
2023-04-21T16:40:03.810Z,22.83
2023-04-21T16:41:04.789Z,22.80
2023-04-21T16:42:03.786Z,22.87
2023-04-21T16:43:03.758Z,22.60
2023-04-21T16:44:04.781Z,22.59
2023-04-21T16:45:04.940Z,22.79
2023-04-21T16:46:04.769Z,22.45
2023-04-21T16:47:03.826Z,22.66
2023-04-21T16:48:05.057Z,22.67
2023-04-21T16:49:04.830Z,22.63
2023-04-21T16:50:03.805Z,21.72
2023-04-21T16:51:04.700Z,21.97
2023-04-21T16:52:03.733Z,22.32
2023-04-21T16:53:04.682Z,21.99
2023-04-21T16:54:04.687Z,22.34
2023-04-21T16:55:04.754Z,22.42
2023-04-21T16:56:04.674Z,22.48
2023-04-21T16:57:03.668Z,22.45
2023-04-21T16:58:04.662Z,22.46
2023-04-21T16:59:04.655Z,22.52
2023-04-21T17:00:05.014Z,22.29
2023-04-21T17:01:05.038Z,22.52
2023-04-21T17:02:03.846Z,22.52
2023-04-21T17:03:05.045Z,22.56
2023-04-21T17:04:05.080Z,22.59
2023-04-21T17:05:04.997Z,22.62
2023-04-21T17:06:05.125Z,22.63
2023-04-21T17:07:05.126Z,22.55
2023-04-21T17:08:04.171Z,22.58
2023-04-21T17:09:04.193Z,22.44
2023-04-21T17:10:04.267Z,22.51
2023-04-21T17:11:05.284Z,22.56
2023-04-21T17:12:05.325Z,22.63
2023-04-21T17:13:05.395Z,22.51
2023-04-21T17:14:05.415Z,22.55
2023-04-21T17:15:05.548Z,22.63
2023-04-21T17:16:04.509Z,22.59
2023-04-21T17:17:04.743Z,22.62
2023-04-21T17:18:05.631Z,22.60
2023-04-21T17:19:04.644Z,22.64
2023-04-21T17:20:05.728Z,22.64
2023-04-21T17:21:05.748Z,22.73
2023-04-21T17:22:04.804Z,22.63
2023-04-21T17:23:04.857Z,22.63
2023-04-21T17:24:05.904Z,22.70
2023-04-21T17:25:05.964Z,22.64
2023-04-21T17:26:04.963Z,22.74
2023-04-21T17:27:05.021Z,22.53
2023-04-21T17:28:06.031Z,22.59
2023-04-21T17:29:06.078Z,22.46
2023-04-21T17:30:06.124Z,22.19
2023-04-21T17:31:15.119Z,22.42
2023-04-21T17:32:06.219Z,22.51
2023-04-21T17:33:16.313Z,22.42
2023-04-21T17:34:06.140Z,22.53
2023-04-21T17:35:06.172Z,22.58
2023-04-21T17:36:06.138Z,22.59
2023-04-21T17:37:05.117Z,22.62
2023-04-21T17:38:05.118Z,22.64
2023-04-21T17:39:06.116Z,22.66
2023-04-21T17:40:06.123Z,22.66
2023-04-21T17:41:05.093Z,22.66
2023-04-21T17:42:05.080Z,22.70
2023-04-21T17:43:06.146Z,22.67
2023-04-21T17:44:05.218Z,22.72
2023-04-21T17:45:05.261Z,22.69
2023-04-21T17:46:06.410Z,22.66
2023-04-21T17:47:05.380Z,22.66
2023-04-21T17:48:05.522Z,22.66
2023-04-21T17:49:06.579Z,22.67
2023-04-21T17:50:06.581Z,22.67
2023-04-21T17:51:05.650Z,22.66
2023-04-21T17:52:06.694Z,22.64
2023-04-21T17:53:05.775Z,22.66
2023-04-21T17:54:06.807Z,22.67
2023-04-21T17:55:05.864Z,22.63
2023-04-21T17:56:06.925Z,22.64
2023-04-21T17:57:05.980Z,22.64
2023-04-21T17:58:06.111Z,22.63
2023-04-21T17:59:06.093Z,22.63